sensor_id;sensor_type;location;lat;lon;timestamp;temperature;humidity
5136;DHT22;2586;48.710;9.202;2023-04-28T00:01:13;10.60;1.00
5136;DHT22;2586;48.710;9.202;2023-04-28T00:03:39;10.60;1.00
5136;DHT22;2586;48.710;9.202;2023-04-28T00:06:05;10.50;1.00
5136;DHT22;2586;48.710;9.202;2023-04-28T00:08:30;10.40;1.00
5136;DHT22;2586;48.710;9.202;2023-04-28T00:10:56;10.40;1.00
5136;DHT22;2586;48.710;9.202;2023-04-28T00:13:22;10.20;67.40
5136;DHT22;2586;48.710;9.202;2023-04-28T00:15:51;10.30;1.00
5136;DHT22;2586;48.710;9.202;2023-04-28T00:18:19;10.30;1.00
5136;DHT22;2586;48.710;9.202;2023-04-28T00:20:45;10.40;1.00
5136;DHT22;2586;48.710;9.202;2023-04-28T00:23:11;10.40;99.90
5136;DHT22;2586;48.710;9.202;2023-04-28T00:25:36;10.40;99.90
5136;DHT22;2586;48.710;9.202;2023-04-28T00:28:02;10.50;99.90
5136;DHT22;2586;48.710;9.202;2023-04-28T00:30:31;10.60;99.90
5136;DHT22;2586;48.710;9.202;2023-04-28T00:32:56;10.70;32.70
5136;DHT22;2586;48.710;9.202;2023-04-28T00:35:22;10.70;99.90
5136;DHT22;2586;48.710;9.202;2023-04-28T00:37:47;10.70;99.90
5136;DHT22;2586;48.710;9.202;2023-04-28T00:40:13;10.70;99.90
5136;DHT22;2586;48.710;9.202;2023-04-28T00:42:39;10.70;96.70
5136;DHT22;2586;48.710;9.202;2023-04-28T00:45:05;10.70;1.00
5136;DHT22;2586;48.710;9.202;2023-04-28T00:47:36;10.80;71.10
5136;DHT22;2586;48.710;9.202;2023-04-28T00:50:02;10.70;99.90
5136;DHT22;2586;48.710;9.202;2023-04-28T00:52:30;10.60;99.90
5136;DHT22;2586;48.710;9.202;2023-04-28T00:54:56;10.50;99.90
5136;DHT22;2586;48.710;9.202;2023-04-28T00:57:22;10.50;99.90
5136;DHT22;2586;48.710;9.202;2023-04-28T00:59:47;10.50;99.90
5136;DHT22;2586;48.710;9.202;2023-04-28T01:02:13;10.60;1.00
5136;DHT22;2586;48.710;9.202;2023-04-28T01:04:43;10.60;99.90
5136;DHT22;2586;48.710;9.202;2023-04-28T01:07:09;10.60;99.90
5136;DHT22;2586;48.710;9.202;2023-04-28T01:09:35;10.70;99.90
5136;DHT22;2586;48.710;9.202;2023-04-28T01:12:00;10.70;99.90
5136;DHT22;2586;48.710;9.202;2023-04-28T01:14:26;10.70;99.90
5136;DHT22;2586;48.710;9.202;2023-04-28T01:16:52;10.80;99.90
5136;DHT22;2586;48.710;9.202;2023-04-28T01:19:22;10.80;1.00
5136;DHT22;2586;48.710;9.202;2023-04-28T01:21:48;10.80;1.00
5136;DHT22;2586;48.710;9.202;2023-04-28T01:24:14;10.60;99.90
5136;DHT22;2586;48.710;9.202;2023-04-28T01:26:40;10.50;99.90
5136;DHT22;2586;48.710;9.202;2023-04-28T01:29:05;10.50;51.30
5136;DHT22;2586;48.710;9.202;2023-04-28T01:31:31;10.50;23.20
5136;DHT22;2586;48.710;9.202;2023-04-28T01:33:57;10.60;99.90
5136;DHT22;2586;48.710;9.202;2023-04-28T01:36:22;10.60;99.90
5136;DHT22;2586;48.710;9.202;2023-04-28T01:38:49;10.60;7.50
5136;DHT22;2586;48.710;9.202;2023-04-28T01:41:14;10.60;29.50
5136;DHT22;2586;48.710;9.202;2023-04-28T01:43:40;10.60;1.00
5136;DHT22;2586;48.710;9.202;2023-04-28T01:46:08;10.70;1.00
5136;DHT22;2586;48.710;9.202;2023-04-28T01:48:33;10.70;1.00
5136;DHT22;2586;48.710;9.202;2023-04-28T01:50:59;10.70;1.00
5136;DHT22;2586;48.710;9.202;2023-04-28T01:53:24;10.70;48.10
5136;DHT22;2586;48.710;9.202;2023-04-28T01:55:50;10.70;1.00
5136;DHT22;2586;48.710;9.202;2023-04-28T01:58:16;10.70;1.00
5136;DHT22;2586;48.710;9.202;2023-04-28T02:00:41;10.70;1.00
5136;DHT22;2586;48.710;9.202;2023-04-28T02:03:07;10.80;1.00
5136;DHT22;2586;48.710;9.202;2023-04-28T02:05:32;10.80;1.00
5136;DHT22;2586;48.710;9.202;2023-04-28T02:07:58;10.70;99.90
5136;DHT22;2586;48.710;9.202;2023-04-28T02:10:24;10.60;1.00
5136;DHT22;2586;48.710;9.202;2023-04-28T02:12:49;10.60;1.00
5136;DHT22;2586;48.710;9.202;2023-04-28T02:15:15;10.60;1.00
5136;DHT22;2586;48.710;9.202;2023-04-28T02:17:41;10.60;1.00
5136;DHT22;2586;48.710;9.202;2023-04-28T02:20:07;10.60;1.00
5136;DHT22;2586;48.710;9.202;2023-04-28T02:22:33;10.60;1.00
5136;DHT22;2586;48.710;9.202;2023-04-28T02:24:58;10.60;99.90
5136;DHT22;2586;48.710;9.202;2023-04-28T02:27:24;10.60;99.90
5136;DHT22;2586;48.710;9.202;2023-04-28T02:29:50;10.60;78.00
5136;DHT22;2586;48.710;9.202;2023-04-28T02:32:17;10.60;15.90
5136;DHT22;2586;48.710;9.202;2023-04-28T02:34:42;10.60;7.60
5136;DHT22;2586;48.710;9.202;2023-04-28T02:37:08;10.70;1.20
5136;DHT22;2586;48.710;9.202;2023-04-28T02:39:33;10.70;99.90
5136;DHT22;2586;48.710;9.202;2023-04-28T02:41:59;10.70;27.40
5136;DHT22;2586;48.710;9.202;2023-04-28T02:44:25;10.70;1.00
5136;DHT22;2586;48.710;9.202;2023-04-28T02:46:50;10.80;99.90
5136;DHT22;2586;48.710;9.202;2023-04-28T02:49:16;10.80;99.90
5136;DHT22;2586;48.710;9.202;2023-04-28T02:51:41;10.80;1.00
5136;DHT22;2586;48.710;9.202;2023-04-28T02:54:07;10.70;72.60
5136;DHT22;2586;48.710;9.202;2023-04-28T02:56:33;10.60;99.90
5136;DHT22;2586;48.710;9.202;2023-04-28T02:58:59;10.60;99.90
5136;DHT22;2586;48.710;9.202;2023-04-28T03:01:24;10.60;1.00
5136;DHT22;2586;48.710;9.202;2023-04-28T03:03:50;10.70;1.00
5136;DHT22;2586;48.710;9.202;2023-04-28T03:06:15;10.70;1.00
5136;DHT22;2586;48.710;9.202;2023-04-28T03:08:41;10.60;99.90
5136;DHT22;2586;48.710;9.202;2023-04-28T03:11:07;10.70;1.00
5136;DHT22;2586;48.710;9.202;2023-04-28T03:13:32;10.70;1.00
5136;DHT22;2586;48.710;9.202;2023-04-28T03:15:58;10.70;74.80
5136;DHT22;2586;48.710;9.202;2023-04-28T03:18:23;10.80;1.00
5136;DHT22;2586;48.710;9.202;2023-04-28T03:20:49;10.80;3.90
5136;DHT22;2586;48.710;9.202;2023-04-28T03:23:15;10.80;1.00
5136;DHT22;2586;48.710;9.202;2023-04-28T03:25:40;10.90;1.00
5136;DHT22;2586;48.710;9.202;2023-04-28T03:28:06;10.90;1.00
5136;DHT22;2586;48.710;9.202;2023-04-28T03:30:32;10.90;99.90
5136;DHT22;2586;48.710;9.202;2023-04-28T03:32:57;10.90;1.00
5136;DHT22;2586;48.710;9.202;2023-04-28T03:35:23;10.90;34.00
5136;DHT22;2586;48.710;9.202;2023-04-28T03:37:48;10.90;99.90
5136;DHT22;2586;48.710;9.202;2023-04-28T03:40:14;10.90;1.00
5136;DHT22;2586;48.710;9.202;2023-04-28T03:42:40;10.90;1.00
5136;DHT22;2586;48.710;9.202;2023-04-28T03:45:07;10.90;1.00
5136;DHT22;2586;48.710;9.202;2023-04-28T03:47:32;10.90;99.90
5136;DHT22;2586;48.710;9.202;2023-04-28T03:49:58;10.90;1.00
5136;DHT22;2586;48.710;9.202;2023-04-28T03:52:24;10.80;99.90
5136;DHT22;2586;48.710;9.202;2023-04-28T03:54:50;10.80;92.70
5136;DHT22;2586;48.710;9.202;2023-04-28T03:57:16;10.80;99.90
5136;DHT22;2586;48.710;9.202;2023-04-28T03:59:41;10.80;99.90
5136;DHT22;2586;48.710;9.202;2023-04-28T04:02:07;10.70;1.00
5136;DHT22;2586;48.710;9.202;2023-04-28T04:04:33;10.80;1.00
5136;DHT22;2586;48.710;9.202;2023-04-28T04:06:58;10.80;1.00
5136;DHT22;2586;48.710;9.202;2023-04-28T04:09:24;10.90;99.90
5136;DHT22;2586;48.710;9.202;2023-04-28T04:11:50;10.90;84.90
5136;DHT22;2586;48.710;9.202;2023-04-28T04:14:15;10.90;1.00
5136;DHT22;2586;48.710;9.202;2023-04-28T04:16:41;11.00;1.00
5136;DHT22;2586;48.710;9.202;2023-04-28T04:19:07;11.00;1.00
5136;DHT22;2586;48.710;9.202;2023-04-28T04:21:32;11.00;1.00
5136;DHT22;2586;48.710;9.202;2023-04-28T04:23:58;11.10;99.90
5136;DHT22;2586;48.710;9.202;2023-04-28T04:26:23;11.20;99.90
5136;DHT22;2586;48.710;9.202;2023-04-28T04:28:49;11.20;99.90
5136;DHT22;2586;48.710;9.202;2023-04-28T04:31:15;11.30;99.90
5136;DHT22;2586;48.710;9.202;2023-04-28T04:33:40;11.30;99.90
5136;DHT22;2586;48.710;9.202;2023-04-28T04:36:06;11.30;99.90
5136;DHT22;2586;48.710;9.202;2023-04-28T04:38:32;11.40;33.40
5136;DHT22;2586;48.710;9.202;2023-04-28T04:40:57;11.40;94.70
5136;DHT22;2586;48.710;9.202;2023-04-28T04:43:23;11.60;1.00
5136;DHT22;2586;48.710;9.202;2023-04-28T04:45:49;11.80;1.00
5136;DHT22;2586;48.710;9.202;2023-04-28T04:48:14;11.90;1.00
5136;DHT22;2586;48.710;9.202;2023-04-28T04:50:40;12.00;1.00
5136;DHT22;2586;48.710;9.202;2023-04-28T04:53:06;12.10;1.00
5136;DHT22;2586;48.710;9.202;2023-04-28T04:55:32;12.10;22.20
5136;DHT22;2586;48.710;9.202;2023-04-28T04:57:58;12.10;99.90
5136;DHT22;2586;48.710;9.202;2023-04-28T05:00:23;12.10;99.90
5136;DHT22;2586;48.710;9.202;2023-04-28T05:02:49;12.00;99.90
5136;DHT22;2586;48.710;9.202;2023-04-28T05:05:15;12.00;1.00
5136;DHT22;2586;48.710;9.202;2023-04-28T05:07:42;11.90;99.90
5136;DHT22;2586;48.710;9.202;2023-04-28T05:10:08;11.90;1.00
5136;DHT22;2586;48.710;9.202;2023-04-28T05:12:36;11.80;99.90
5136;DHT22;2586;48.710;9.202;2023-04-28T05:15:01;11.70;1.00
5136;DHT22;2586;48.710;9.202;2023-04-28T05:17:27;11.70;99.90
5136;DHT22;2586;48.710;9.202;2023-04-28T05:19:52;11.60;1.00
5136;DHT22;2586;48.710;9.202;2023-04-28T05:22:18;11.50;57.40
5136;DHT22;2586;48.710;9.202;2023-04-28T05:24:43;11.50;1.00
5136;DHT22;2586;48.710;9.202;2023-04-28T05:27:09;11.50;1.00
5136;DHT22;2586;48.710;9.202;2023-04-28T05:29:34;11.50;99.90
5136;DHT22;2586;48.710;9.202;2023-04-28T05:32:01;11.50;99.90
5136;DHT22;2586;48.710;9.202;2023-04-28T05:34:26;11.50;99.90
5136;DHT22;2586;48.710;9.202;2023-04-28T05:36:52;11.50;99.90
5136;DHT22;2586;48.710;9.202;2023-04-28T05:39:17;11.50;99.90
5136;DHT22;2586;48.710;9.202;2023-04-28T05:41:43;11.50;1.00
5136;DHT22;2586;48.710;9.202;2023-04-28T05:44:08;11.50;99.90
5136;DHT22;2586;48.710;9.202;2023-04-28T05:46:35;11.50;1.00
5136;DHT22;2586;48.710;9.202;2023-04-28T05:49:01;11.40;1.00
5136;DHT22;2586;48.710;9.202;2023-04-28T05:51:26;11.40;1.00
5136;DHT22;2586;48.710;9.202;2023-04-28T05:53:52;11.50;99.90
5136;DHT22;2586;48.710;9.202;2023-04-28T05:56:18;11.50;99.90
5136;DHT22;2586;48.710;9.202;2023-04-28T05:58:44;11.50;1.00
5136;DHT22;2586;48.710;9.202;2023-04-28T06:01:10;11.50;1.00
5136;DHT22;2586;48.710;9.202;2023-04-28T06:03:36;11.50;20.10
5136;DHT22;2586;48.710;9.202;2023-04-28T06:06:02;11.50;1.00
5136;DHT22;2586;48.710;9.202;2023-04-28T06:08:27;11.50;99.90
5136;DHT22;2586;48.710;9.202;2023-04-28T06:10:53;11.50;99.90
5136;DHT22;2586;48.710;9.202;2023-04-28T06:13:18;11.50;1.00
5136;DHT22;2586;48.710;9.202;2023-04-28T06:15:44;11.60;1.00
5136;DHT22;2586;48.710;9.202;2023-04-28T06:18:09;11.50;1.00
5136;DHT22;2586;48.710;9.202;2023-04-28T06:20:35;11.50;1.00
5136;DHT22;2586;48.710;9.202;2023-04-28T06:23:01;11.50;74.50
5136;DHT22;2586;48.710;9.202;2023-04-28T06:25:28;11.50;99.90
5136;DHT22;2586;48.710;9.202;2023-04-28T06:27:54;11.50;99.90
5136;DHT22;2586;48.710;9.202;2023-04-28T06:30:21;11.50;99.90
5136;DHT22;2586;48.710;9.202;2023-04-28T06:32:47;11.50;99.90
5136;DHT22;2586;48.710;9.202;2023-04-28T06:35:14;11.50;99.90
5136;DHT22;2586;48.710;9.202;2023-04-28T06:37:41;11.50;99.90
5136;DHT22;2586;48.710;9.202;2023-04-28T06:40:07;11.50;99.90
5136;DHT22;2586;48.710;9.202;2023-04-28T06:42:33;11.50;99.90
5136;DHT22;2586;48.710;9.202;2023-04-28T06:44:58;11.50;99.90
5136;DHT22;2586;48.710;9.202;2023-04-28T06:47:24;11.40;99.90
5136;DHT22;2586;48.710;9.202;2023-04-28T06:49:50;11.40;99.90
5136;DHT22;2586;48.710;9.202;2023-04-28T06:52:16;11.50;99.90
5136;DHT22;2586;48.710;9.202;2023-04-28T06:54:42;11.40;99.90
5136;DHT22;2586;48.710;9.202;2023-04-28T06:57:07;11.60;99.90
5136;DHT22;2586;48.710;9.202;2023-04-28T06:59:33;11.90;99.90
5136;DHT22;2586;48.710;9.202;2023-04-28T07:01:59;11.90;99.90
5136;DHT22;2586;48.710;9.202;2023-04-28T07:04:25;11.90;99.90
5136;DHT22;2586;48.710;9.202;2023-04-28T07:06:51;11.90;99.10
5136;DHT22;2586;48.710;9.202;2023-04-28T07:09:17;12.00;99.90
5136;DHT22;2586;48.710;9.202;2023-04-28T07:11:43;11.90;71.10
5136;DHT22;2586;48.710;9.202;2023-04-28T07:14:09;11.90;1.00
5136;DHT22;2586;48.710;9.202;2023-04-28T07:16:35;11.80;1.00
5136;DHT22;2586;48.710;9.202;2023-04-28T07:19:00;11.80;3.50
5136;DHT22;2586;48.710;9.202;2023-04-28T07:21:26;11.90;6.00
5136;DHT22;2586;48.710;9.202;2023-04-28T07:23:52;11.90;1.00
5136;DHT22;2586;48.710;9.202;2023-04-28T07:26:21;12.00;28.70
5136;DHT22;2586;48.710;9.202;2023-04-28T07:28:47;11.90;1.00
5136;DHT22;2586;48.710;9.202;2023-04-28T07:31:12;12.00;1.00
5136;DHT22;2586;48.710;9.202;2023-04-28T07:33:38;12.10;71.90
5136;DHT22;2586;48.710;9.202;2023-04-28T07:36:04;12.10;1.00
5136;DHT22;2586;48.710;9.202;2023-04-28T07:38:30;12.20;1.00
5136;DHT22;2586;48.710;9.202;2023-04-28T07:40:56;12.20;1.00
5136;DHT22;2586;48.710;9.202;2023-04-28T07:43:21;12.30;28.70
5136;DHT22;2586;48.710;9.202;2023-04-28T07:45:47;12.30;1.00
5136;DHT22;2586;48.710;9.202;2023-04-28T07:48:14;12.30;1.00
5136;DHT22;2586;48.710;9.202;2023-04-28T07:50:40;12.40;1.00
5136;DHT22;2586;48.710;9.202;2023-04-28T07:53:06;12.40;1.00
5136;DHT22;2586;48.710;9.202;2023-04-28T07:55:32;12.40;1.00
5136;DHT22;2586;48.710;9.202;2023-04-28T07:57:58;12.50;1.00
5136;DHT22;2586;48.710;9.202;2023-04-28T08:00:24;12.50;1.00
5136;DHT22;2586;48.710;9.202;2023-04-28T08:02:50;12.60;6.80
5136;DHT22;2586;48.710;9.202;2023-04-28T08:05:17;12.60;1.00
5136;DHT22;2586;48.710;9.202;2023-04-28T08:07:43;12.60;1.00
5136;DHT22;2586;48.710;9.202;2023-04-28T08:10:09;12.60;1.00
5136;DHT22;2586;48.710;9.202;2023-04-28T08:12:36;12.60;1.00
5136;DHT22;2586;48.710;9.202;2023-04-28T08:15:02;12.60;25.80
5136;DHT22;2586;48.710;9.202;2023-04-28T08:17:28;12.50;75.90
5136;DHT22;2586;48.710;9.202;2023-04-28T08:19:53;12.50;99.90
5136;DHT22;2586;48.710;9.202;2023-04-28T08:22:19;12.50;99.90
5136;DHT22;2586;48.710;9.202;2023-04-28T08:24:45;12.40;99.90
5136;DHT22;2586;48.710;9.202;2023-04-28T08:27:11;12.50;99.90
5136;DHT22;2586;48.710;9.202;2023-04-28T08:29:37;12.50;99.90
5136;DHT22;2586;48.710;9.202;2023-04-28T08:32:03;12.50;99.90
5136;DHT22;2586;48.710;9.202;2023-04-28T08:34:31;12.50;99.90
5136;DHT22;2586;48.710;9.202;2023-04-28T08:36:57;12.60;99.90
5136;DHT22;2586;48.710;9.202;2023-04-28T08:39:22;12.60;99.90
5136;DHT22;2586;48.710;9.202;2023-04-28T08:41:50;12.70;99.90
5136;DHT22;2586;48.710;9.202;2023-04-28T08:44:16;12.70;99.90
5136;DHT22;2586;48.710;9.202;2023-04-28T08:46:44;12.80;99.90
5136;DHT22;2586;48.710;9.202;2023-04-28T08:49:17;12.90;99.90
5136;DHT22;2586;48.710;9.202;2023-04-28T08:51:52;12.90;99.90
5136;DHT22;2586;48.710;9.202;2023-04-28T08:54:20;13.00;99.90
5136;DHT22;2586;48.710;9.202;2023-04-28T08:56:47;13.00;99.90
5136;DHT22;2586;48.710;9.202;2023-04-28T08:59:14;13.00;99.90
5136;DHT22;2586;48.710;9.202;2023-04-28T09:01:40;13.00;99.90
5136;DHT22;2586;48.710;9.202;2023-04-28T09:04:06;13.00;99.90
5136;DHT22;2586;48.710;9.202;2023-04-28T09:06:35;13.10;99.90
5136;DHT22;2586;48.710;9.202;2023-04-28T09:09:24;13.10;99.90
5136;DHT22;2586;48.710;9.202;2023-04-28T09:12:00;13.10;99.90
5136;DHT22;2586;48.710;9.202;2023-04-28T09:14:31;13.10;99.90
5136;DHT22;2586;48.710;9.202;2023-04-28T09:16:57;13.20;99.90
5136;DHT22;2586;48.710;9.202;2023-04-28T09:19:23;13.40;99.90
5136;DHT22;2586;48.710;9.202;2023-04-28T09:21:57;13.40;99.90
5136;DHT22;2586;48.710;9.202;2023-04-28T09:24:32;13.40;99.90
5136;DHT22;2586;48.710;9.202;2023-04-28T09:27:02;13.40;99.90
5136;DHT22;2586;48.710;9.202;2023-04-28T09:29:31;13.50;99.90
5136;DHT22;2586;48.710;9.202;2023-04-28T09:32:13;13.50;99.90
5136;DHT22;2586;48.710;9.202;2023-04-28T09:34:50;13.50;99.90
5136;DHT22;2586;48.710;9.202;2023-04-28T09:37:20;13.50;99.90
5136;DHT22;2586;48.710;9.202;2023-04-28T09:39:48;13.60;99.90
5136;DHT22;2586;48.710;9.202;2023-04-28T09:42:34;13.70;99.90
5136;DHT22;2586;48.710;9.202;2023-04-28T09:45:01;13.80;99.90
5136;DHT22;2586;48.710;9.202;2023-04-28T09:47:28;13.90;99.90
5136;DHT22;2586;48.710;9.202;2023-04-28T09:49:55;13.90;99.90
5136;DHT22;2586;48.710;9.202;2023-04-28T09:52:22;14.10;99.90
5136;DHT22;2586;48.710;9.202;2023-04-28T09:54:53;14.20;99.90
5136;DHT22;2586;48.710;9.202;2023-04-28T09:57:19;14.30;99.90
5136;DHT22;2586;48.710;9.202;2023-04-28T09:59:50;14.50;99.90
5136;DHT22;2586;48.710;9.202;2023-04-28T10:02:17;14.90;97.70
5136;DHT22;2586;48.710;9.202;2023-04-28T10:04:49;15.10;1.00
5136;DHT22;2586;48.710;9.202;2023-04-28T10:07:20;15.30;99.90
5136;DHT22;2586;48.710;9.202;2023-04-28T10:09:47;15.50;1.00
5136;DHT22;2586;48.710;9.202;2023-04-28T10:12:24;15.30;1.00
5136;DHT22;2586;48.710;9.202;2023-04-28T10:14:50;15.40;90.30
5136;DHT22;2586;48.710;9.202;2023-04-28T10:17:19;15.40;22.00
5136;DHT22;2586;48.710;9.202;2023-04-28T10:19:46;15.40;1.00
5136;DHT22;2586;48.710;9.202;2023-04-28T10:27:28;15.50;60.00
5136;DHT22;2586;48.710;9.202;2023-04-28T10:30:11;15.60;1.00
5136;DHT22;2586;48.710;9.202;2023-04-28T10:32:38;15.70;99.90
5136;DHT22;2586;48.710;9.202;2023-04-28T10:38:17;15.80;1.00
5136;DHT22;2586;48.710;9.202;2023-04-28T10:40:43;15.90;99.90
5136;DHT22;2586;48.710;9.202;2023-04-28T10:43:10;15.90;99.90
5136;DHT22;2586;48.710;9.202;2023-04-28T10:56:10;16.10;1.00
5136;DHT22;2586;48.710;9.202;2023-04-28T10:58:36;16.20;97.20
5136;DHT22;2586;48.710;9.202;2023-04-28T11:03:50;16.50;99.90
5136;DHT22;2586;48.710;9.202;2023-04-28T11:08:54;17.00;99.90
5136;DHT22;2586;48.710;9.202;2023-04-28T11:11:29;17.00;99.90
5136;DHT22;2586;48.710;9.202;2023-04-28T11:17:21;17.10;99.90
5136;DHT22;2586;48.710;9.202;2023-04-28T11:20:02;17.00;99.90
5136;DHT22;2586;48.710;9.202;2023-04-28T11:22:30;16.90;1.00
5136;DHT22;2586;48.710;9.202;2023-04-28T11:25:01;16.90;1.00
5136;DHT22;2586;48.710;9.202;2023-04-28T11:27:28;16.90;99.90
5136;DHT22;2586;48.710;9.202;2023-04-28T11:29:54;16.80;99.90
5136;DHT22;2586;48.710;9.202;2023-04-28T11:32:30;16.80;63.80
5136;DHT22;2586;48.710;9.202;2023-04-28T11:34:57;16.60;1.00
5136;DHT22;2586;48.710;9.202;2023-04-28T11:37:22;16.70;1.00
5136;DHT22;2586;48.710;9.202;2023-04-28T11:39:48;16.80;99.90
5136;DHT22;2586;48.710;9.202;2023-04-28T11:42:14;16.80;99.90
5136;DHT22;2586;48.710;9.202;2023-04-28T11:44:41;17.00;99.90
5136;DHT22;2586;48.710;9.202;2023-04-28T11:47:13;17.10;99.90
5136;DHT22;2586;48.710;9.202;2023-04-28T11:49:42;17.20;1.00
5136;DHT22;2586;48.710;9.202;2023-04-28T11:52:09;17.20;99.90
5136;DHT22;2586;48.710;9.202;2023-04-28T11:54:35;17.10;99.70
5136;DHT22;2586;48.710;9.202;2023-04-28T11:57:02;17.10;99.90
5136;DHT22;2586;48.710;9.202;2023-04-28T11:59:33;17.10;99.90
5136;DHT22;2586;48.710;9.202;2023-04-28T12:02:04;16.90;99.90
5136;DHT22;2586;48.710;9.202;2023-04-28T12:04:32;16.90;99.90
5136;DHT22;2586;48.710;9.202;2023-04-28T12:07:08;16.90;1.00
5136;DHT22;2586;48.710;9.202;2023-04-28T12:09:42;16.90;1.00
5136;DHT22;2586;48.710;9.202;2023-04-28T12:12:10;16.90;99.90
5136;DHT22;2586;48.710;9.202;2023-04-28T12:17:28;16.80;1.00
5136;DHT22;2586;48.710;9.202;2023-04-28T12:19:55;16.90;99.90
5136;DHT22;2586;48.710;9.202;2023-04-28T12:22:21;16.90;99.90
5136;DHT22;2586;48.710;9.202;2023-04-28T12:25:08;17.00;99.90
5136;DHT22;2586;48.710;9.202;2023-04-28T12:27:35;17.10;1.00
5136;DHT22;2586;48.710;9.202;2023-04-28T12:30:25;17.20;1.00
5136;DHT22;2586;48.710;9.202;2023-04-28T12:32:50;17.30;1.00
5136;DHT22;2586;48.710;9.202;2023-04-28T12:35:16;17.50;99.90
5136;DHT22;2586;48.710;9.202;2023-04-28T12:37:42;17.80;99.90
5136;DHT22;2586;48.710;9.202;2023-04-28T12:40:08;18.00;99.90
5136;DHT22;2586;48.710;9.202;2023-04-28T12:42:35;18.00;99.90
5136;DHT22;2586;48.710;9.202;2023-04-28T12:45:01;18.00;1.00
5136;DHT22;2586;48.710;9.202;2023-04-28T12:47:27;17.90;1.00
5136;DHT22;2586;48.710;9.202;2023-04-28T12:49:53;18.00;99.70
5136;DHT22;2586;48.710;9.202;2023-04-28T12:52:19;17.80;99.90
5136;DHT22;2586;48.710;9.202;2023-04-28T12:54:45;17.80;1.00
5136;DHT22;2586;48.710;9.202;2023-04-28T12:57:17;17.80;99.90
5136;DHT22;2586;48.710;9.202;2023-04-28T12:59:46;17.70;1.00
5136;DHT22;2586;48.710;9.202;2023-04-28T13:02:13;17.80;1.00
5136;DHT22;2586;48.710;9.202;2023-04-28T13:04:41;18.00;1.00
5136;DHT22;2586;48.710;9.202;2023-04-28T13:07:11;18.00;1.00
5136;DHT22;2586;48.710;9.202;2023-04-28T13:09:37;18.00;99.90
5136;DHT22;2586;48.710;9.202;2023-04-28T13:12:02;17.90;93.20
5136;DHT22;2586;48.710;9.202;2023-04-28T13:14:29;17.80;99.90
5136;DHT22;2586;48.710;9.202;2023-04-28T13:16:55;17.70;1.00
5136;DHT22;2586;48.710;9.202;2023-04-28T13:19:22;17.50;1.00
5136;DHT22;2586;48.710;9.202;2023-04-28T13:21:47;17.50;99.90
5136;DHT22;2586;48.710;9.202;2023-04-28T13:24:13;17.60;99.90
5136;DHT22;2586;48.710;9.202;2023-04-28T13:26:39;17.90;1.00
5136;DHT22;2586;48.710;9.202;2023-04-28T13:29:05;18.10;1.00
5136;DHT22;2586;48.710;9.202;2023-04-28T13:31:33;18.40;1.00
5136;DHT22;2586;48.710;9.202;2023-04-28T13:33:59;18.70;1.00
5136;DHT22;2586;48.710;9.202;2023-04-28T13:36:27;19.00;1.00
5136;DHT22;2586;48.710;9.202;2023-04-28T13:38:57;19.00;99.90
5136;DHT22;2586;48.710;9.202;2023-04-28T13:41:23;19.10;1.00
5136;DHT22;2586;48.710;9.202;2023-04-28T13:43:50;18.90;99.90
5136;DHT22;2586;48.710;9.202;2023-04-28T13:46:15;18.70;99.90
5136;DHT22;2586;48.710;9.202;2023-04-28T13:48:41;18.40;99.90
5136;DHT22;2586;48.710;9.202;2023-04-28T13:51:07;18.10;1.00
5136;DHT22;2586;48.710;9.202;2023-04-28T13:53:34;17.90;1.00
5136;DHT22;2586;48.710;9.202;2023-04-28T13:56:00;17.80;1.00
5136;DHT22;2586;48.710;9.202;2023-04-28T13:58:27;17.80;1.00
5136;DHT22;2586;48.710;9.202;2023-04-28T14:00:53;17.70;93.60
5136;DHT22;2586;48.710;9.202;2023-04-28T14:03:20;17.70;1.00
5136;DHT22;2586;48.710;9.202;2023-04-28T14:05:47;17.60;1.00
5136;DHT22;2586;48.710;9.202;2023-04-28T14:08:14;17.70;1.00
5136;DHT22;2586;48.710;9.202;2023-04-28T14:10:40;17.60;1.00
5136;DHT22;2586;48.710;9.202;2023-04-28T14:13:05;17.60;99.90
5136;DHT22;2586;48.710;9.202;2023-04-28T14:15:31;17.60;1.00
5136;DHT22;2586;48.710;9.202;2023-04-28T14:17:57;17.50;99.90
5136;DHT22;2586;48.710;9.202;2023-04-28T14:20:23;17.30;1.00
5136;DHT22;2586;48.710;9.202;2023-04-28T14:22:48;17.00;1.00
5136;DHT22;2586;48.710;9.202;2023-04-28T14:25:15;16.80;99.90
5136;DHT22;2586;48.710;9.202;2023-04-28T14:27:41;16.60;1.00
5136;DHT22;2586;48.710;9.202;2023-04-28T14:30:06;16.60;99.90
5136;DHT22;2586;48.710;9.202;2023-04-28T14:32:33;16.50;1.00
5136;DHT22;2586;48.710;9.202;2023-04-28T14:34:59;16.60;99.90
5136;DHT22;2586;48.710;9.202;2023-04-28T14:37:25;16.60;99.90
5136;DHT22;2586;48.710;9.202;2023-04-28T14:39:51;17.00;1.00
5136;DHT22;2586;48.710;9.202;2023-04-28T14:42:17;17.40;99.90
5136;DHT22;2586;48.710;9.202;2023-04-28T14:44:44;17.50;63.90
5136;DHT22;2586;48.710;9.202;2023-04-28T14:47:10;17.50;1.00
5136;DHT22;2586;48.710;9.202;2023-04-28T14:49:36;17.30;1.00
5136;DHT22;2586;48.710;9.202;2023-04-28T14:52:03;17.10;1.00
5136;DHT22;2586;48.710;9.202;2023-04-28T14:54:28;16.90;99.90
5136;DHT22;2586;48.710;9.202;2023-04-28T14:56:54;16.60;99.90
5136;DHT22;2586;48.710;9.202;2023-04-28T14:59:19;16.60;99.90
5136;DHT22;2586;48.710;9.202;2023-04-28T15:01:45;16.50;1.00
5136;DHT22;2586;48.710;9.202;2023-04-28T15:04:11;16.40;99.90
5136;DHT22;2586;48.710;9.202;2023-04-28T15:06:37;16.40;1.00
5136;DHT22;2586;48.710;9.202;2023-04-28T15:09:02;16.40;99.90
5136;DHT22;2586;48.710;9.202;2023-04-28T15:11:28;16.20;99.90
5136;DHT22;2586;48.710;9.202;2023-04-28T15:13:53;16.10;1.00
5136;DHT22;2586;48.710;9.202;2023-04-28T15:16:19;16.00;99.90
5136;DHT22;2586;48.710;9.202;2023-04-28T15:18:45;15.90;99.90
5136;DHT22;2586;48.710;9.202;2023-04-28T15:21:11;16.00;1.00
5136;DHT22;2586;48.710;9.202;2023-04-28T15:23:36;16.00;1.00
5136;DHT22;2586;48.710;9.202;2023-04-28T15:26:02;16.00;1.00
5136;DHT22;2586;48.710;9.202;2023-04-28T15:28:28;15.90;99.90
5136;DHT22;2586;48.710;9.202;2023-04-28T15:30:53;15.80;99.90
5136;DHT22;2586;48.710;9.202;2023-04-28T15:33:19;15.70;12.10
5136;DHT22;2586;48.710;9.202;2023-04-28T15:35:45;15.50;1.00
5136;DHT22;2586;48.710;9.202;2023-04-28T15:38:12;15.40;1.00
5136;DHT22;2586;48.710;9.202;2023-04-28T15:40:38;15.30;1.00
5136;DHT22;2586;48.710;9.202;2023-04-28T15:43:05;15.20;1.00
5136;DHT22;2586;48.710;9.202;2023-04-28T15:45:31;15.30;1.00
5136;DHT22;2586;48.710;9.202;2023-04-28T15:47:57;15.30;1.00
5136;DHT22;2586;48.710;9.202;2023-04-28T15:50:23;15.40;1.00
5136;DHT22;2586;48.710;9.202;2023-04-28T15:52:48;15.40;1.00
5136;DHT22;2586;48.710;9.202;2023-04-28T15:55:16;15.50;99.90
5136;DHT22;2586;48.710;9.202;2023-04-28T15:57:42;15.50;1.00
5136;DHT22;2586;48.710;9.202;2023-04-28T16:00:09;15.60;1.00
5136;DHT22;2586;48.710;9.202;2023-04-28T16:02:36;15.50;99.90
5136;DHT22;2586;48.710;9.202;2023-04-28T16:05:02;15.50;31.40
5136;DHT22;2586;48.710;9.202;2023-04-28T16:07:30;15.50;99.90
5136;DHT22;2586;48.710;9.202;2023-04-28T16:10:03;15.40;99.90
5136;DHT22;2586;48.710;9.202;2023-04-28T16:12:28;15.40;1.00
5136;DHT22;2586;48.710;9.202;2023-04-28T16:14:55;15.40;1.00
5136;DHT22;2586;48.710;9.202;2023-04-28T16:17:21;15.30;1.00
5136;DHT22;2586;48.710;9.202;2023-04-28T16:19:47;15.20;87.00
5136;DHT22;2586;48.710;9.202;2023-04-28T16:22:12;15.20;99.90
5136;DHT22;2586;48.710;9.202;2023-04-28T16:24:38;15.20;1.00
5136;DHT22;2586;48.710;9.202;2023-04-28T16:27:07;15.20;1.00
5136;DHT22;2586;48.710;9.202;2023-04-28T16:29:32;15.10;1.00
5136;DHT22;2586;48.710;9.202;2023-04-28T16:31:58;15.10;25.70
5136;DHT22;2586;48.710;9.202;2023-04-28T16:34:23;15.10;82.60
5136;DHT22;2586;48.710;9.202;2023-04-28T16:36:49;15.10;96.20